createdAt,value
2022-11-11T00:02:09.743Z,13.47
2022-11-11T00:07:31.169Z,15.20
2022-11-11T00:12:52.502Z,13.97
2022-11-11T00:18:32.368Z,18.97
2022-11-11T00:24:11.969Z,15.10
2022-11-11T00:29:32.744Z,14.37
2022-11-11T00:35:14.332Z,20.43
2022-11-11T00:40:35.589Z,13.53
2022-11-11T00:46:16.602Z,14.27
2022-11-11T00:51:38.102Z,15.07
2022-11-11T00:56:59.025Z,15.17
2022-11-11T01:02:19.978Z,14.07
2022-11-11T01:07:41.143Z,15.67
2022-11-11T01:13:22.612Z,15.07
2022-11-11T01:18:43.725Z,13.00
2022-11-11T01:24:04.825Z,14.10
2022-11-11T01:29:25.746Z,13.23
2022-11-11T01:34:46.850Z,10.60
2022-11-11T01:40:08.726Z,12.47
2022-11-11T01:46:14.890Z,14.03
2022-11-11T01:51:41.343Z,10.13
2022-11-11T01:57:11.227Z,15.03
2022-11-11T02:02:40.602Z,12.40
2022-11-11T02:08:07.809Z,14.00
2022-11-11T02:13:47.964Z,12.37
2022-11-11T02:19:09.396Z,10.93
2022-11-11T02:24:32.328Z,13.10
2022-11-11T02:29:56.315Z,12.03
2022-11-11T02:35:22.915Z,21.70
2022-11-11T02:41:04.468Z,15.23
2022-11-11T02:46:25.862Z,12.83
2022-11-11T02:51:47.992Z,15.07
2022-11-11T02:57:09.966Z,13.77
2022-11-11T03:02:31.006Z,16.57
2022-11-11T03:07:52.193Z,8.63
2022-11-11T03:13:13.547Z,11.63
2022-11-11T03:18:34.762Z,18.23
2022-11-11T03:23:55.834Z,10.63
2022-11-11T03:29:16.812Z,10.00
2022-11-11T03:34:38.043Z,10.50
2022-11-11T03:39:59.112Z,13.17
2022-11-11T03:45:20.002Z,14.57
2022-11-11T03:50:41.006Z,12.93
2022-11-11T03:56:02.189Z,13.03
2022-11-11T04:01:41.967Z,17.50
2022-11-11T04:07:21.507Z,16.40
2022-11-11T04:13:01.847Z,10.63
2022-11-11T04:18:42.909Z,11.43
2022-11-11T04:24:24.424Z,14.33
2022-11-11T04:29:47.299Z,18.33
2022-11-11T04:35:10.794Z,15.37
2022-11-11T04:40:50.364Z,10.17
2022-11-11T04:46:11.362Z,9.57
2022-11-11T04:51:52.374Z,10.63
2022-11-11T04:57:13.358Z,11.93
2022-11-11T05:02:52.687Z,8.57
2022-11-11T05:08:32.013Z,8.90
2022-11-11T05:14:13.000Z,8.13
2022-11-11T05:19:53.142Z,13.67
2022-11-11T05:25:26.071Z,13.60
2022-11-11T05:30:46.928Z,9.40
2022-11-11T05:36:08.114Z,11.00
2022-11-11T05:41:29.576Z,12.53
2022-11-11T05:46:50.535Z,11.00
2022-11-11T05:52:18.630Z,15.30
2022-11-11T05:57:39.423Z,10.93
2022-11-11T06:03:05.955Z,13.67
2022-11-11T06:08:26.961Z,9.67
2022-11-11T06:13:48.993Z,8.87
2022-11-11T06:19:10.107Z,9.23
2022-11-11T06:24:31.234Z,12.47
2022-11-11T06:29:52.131Z,12.30
2022-11-11T06:35:13.093Z,9.07
2022-11-11T06:40:34.212Z,13.20
2022-11-11T06:45:56.030Z,8.27
2022-11-11T06:51:18.465Z,11.23
2022-11-11T06:56:39.580Z,10.67
2022-11-11T07:02:00.873Z,12.37
2022-11-11T07:07:21.651Z,13.80
2022-11-11T07:12:42.650Z,16.03
2022-11-11T07:18:04.911Z,8.30
2022-11-11T07:23:25.749Z,11.70
2022-11-11T07:28:46.874Z,10.10
2022-11-11T07:34:08.383Z,13.40
2022-11-11T07:39:29.615Z,10.13
2022-11-11T07:44:50.748Z,9.57
2022-11-11T07:50:12.663Z,16.23
2022-11-11T07:55:33.816Z,9.10
2022-11-11T08:00:54.984Z,9.13
2022-11-11T08:06:18.093Z,11.30
2022-11-11T08:11:57.510Z,13.43
2022-11-11T08:17:18.405Z,7.87
2022-11-11T08:22:40.795Z,12.00
2022-11-11T08:28:04.373Z,10.83
2022-11-11T08:33:34.659Z,8.30
2022-11-11T08:38:56.090Z,12.83
2022-11-11T08:44:17.150Z,9.67
2022-11-11T08:49:38.144Z,7.83
2022-11-11T08:55:01.854Z,9.00
2022-11-11T09:00:24.107Z,12.73
2022-11-11T09:05:47.570Z,7.20
2022-11-11T09:11:08.476Z,11.87
2022-11-11T09:16:29.543Z,11.67
2022-11-11T09:21:53.793Z,8.50
2022-11-11T09:27:15.304Z,13.20
2022-11-11T09:32:36.997Z,10.03
2022-11-11T09:38:00.027Z,7.40
2022-11-11T09:43:59.447Z,8.93
2022-11-11T09:49:57.003Z,7.60
2022-11-11T09:55:26.857Z,9.83
2022-11-11T10:00:54.514Z,10.57
2022-11-11T10:06:24.361Z,8.57
2022-11-11T10:12:00.665Z,9.13
2022-11-11T10:17:37.426Z,8.80
2022-11-11T10:23:17.367Z,7.13
2022-11-11T10:28:49.898Z,10.57
2022-11-11T10:34:17.994Z,8.40
2022-11-11T10:40:00.166Z,14.87
2022-11-11T10:45:27.978Z,8.63
2022-11-11T10:50:54.657Z,9.67
2022-11-11T10:56:30.253Z,11.20
2022-11-11T11:02:15.688Z,8.60
2022-11-11T11:07:51.270Z,8.30
2022-11-11T11:13:25.537Z,7.80
2022-11-11T11:19:19.814Z,9.40
2022-11-11T11:24:43.902Z,7.27
2022-11-11T11:30:24.640Z,8.47
2022-11-11T11:35:45.597Z,9.17
2022-11-11T11:41:06.765Z,11.93
2022-11-11T11:46:39.429Z,11.83
2022-11-11T11:52:17.026Z,8.63
2022-11-11T11:57:37.862Z,12.63
2022-11-11T12:03:30.223Z,11.47
2022-11-11T12:09:03.300Z,10.03
2022-11-11T12:14:43.528Z,7.57
2022-11-11T12:20:14.540Z,5.17
2022-11-11T12:25:52.936Z,7.53
2022-11-11T12:31:14.110Z,6.90
2022-11-11T12:36:35.154Z,7.93
2022-11-11T12:42:11.557Z,6.60
2022-11-11T12:48:17.160Z,8.93
2022-11-11T12:53:53.374Z,7.63
2022-11-11T12:59:35.437Z,9.43
2022-11-11T13:05:14.921Z,8.60
2022-11-11T13:11:09.398Z,7.07
2022-11-11T13:16:30.714Z,12.30
2022-11-11T13:21:59.272Z,7.27
2022-11-11T13:27:42.779Z,8.87
2022-11-11T13:33:23.814Z,7.73
2022-11-11T13:38:54.078Z,11.70
2022-11-11T13:44:24.048Z,6.80
2022-11-11T13:49:55.210Z,7.60
2022-11-11T13:55:25.197Z,11.20
2022-11-11T14:00:46.281Z,8.80
2022-11-11T14:06:16.206Z,5.77
2022-11-11T14:11:37.301Z,3.40
2022-11-11T14:17:21.051Z,6.80
2022-11-11T14:22:43.273Z,10.57
2022-11-11T14:28:05.486Z,6.83
2022-11-11T14:33:46.462Z,6.97
2022-11-11T14:39:27.922Z,8.90
2022-11-11T14:44:49.037Z,7.63
2022-11-11T14:50:32.508Z,10.27
2022-11-11T14:55:55.782Z,8.50
2022-11-11T15:01:20.620Z,8.37
2022-11-11T15:07:00.356Z,13.00
2022-11-11T15:12:42.867Z,10.10
2022-11-11T15:18:26.848Z,10.87
2022-11-11T15:24:06.297Z,9.63
2022-11-11T15:29:39.125Z,14.67
2022-11-11T15:35:00.141Z,8.67
2022-11-11T15:40:22.894Z,10.43
2022-11-11T15:45:44.170Z,11.50
2022-11-11T15:51:27.427Z,8.63
2022-11-11T15:56:48.281Z,11.67
2022-11-11T16:02:26.702Z,11.40
2022-11-11T16:07:51.400Z,14.53
2022-11-11T16:13:26.405Z,12.50
2022-11-11T16:18:52.534Z,15.70
2022-11-11T16:24:27.408Z,22.13
2022-11-11T16:29:48.392Z,21.60
2022-11-11T16:35:23.766Z,22.63
2022-11-11T16:40:44.918Z,19.27
2022-11-11T16:46:08.881Z,15.87
2022-11-11T16:51:42.051Z,12.93
2022-11-11T16:57:03.073Z,17.63
2022-11-11T17:02:25.577Z,16.23
2022-11-11T17:07:46.613Z,20.67
2022-11-11T17:13:07.847Z,16.40
2022-11-11T17:18:29.366Z,16.90
2022-11-11T17:23:52.465Z,17.50
2022-11-11T17:29:14.957Z,20.03
2022-11-11T17:34:36.340Z,26.57
2022-11-11T17:39:57.488Z,30.63
2022-11-11T17:45:19.176Z,38.70
2022-11-11T17:50:40.666Z,37.93
2022-11-11T17:56:05.088Z,27.80
2022-11-11T18:01:34.258Z,36.63
2022-11-11T18:06:55.646Z,40.33
2022-11-11T18:12:16.926Z,35.67
2022-11-11T18:17:38.131Z,38.87
2022-11-11T18:22:58.842Z,38.23
2022-11-11T18:28:20.002Z,31.43
2022-11-11T18:33:47.764Z,37.77
2022-11-11T18:39:10.249Z,36.60
2022-11-11T18:44:31.443Z,38.57
2022-11-11T18:49:58.233Z,36.60
2022-11-11T18:55:19.985Z,36.03
2022-11-11T19:00:41.722Z,34.07
2022-11-11T19:06:07.255Z,39.27
2022-11-11T19:11:29.024Z,38.27
2022-11-11T19:16:50.236Z,42.33
2022-11-11T19:22:11.279Z,38.53
2022-11-11T19:27:32.276Z,40.77
2022-11-11T19:32:53.169Z,46.47
2022-11-11T19:38:14.371Z,47.33
2022-11-11T19:43:36.848Z,44.27
2022-11-11T19:49:00.469Z,57.67
2022-11-11T19:54:22.064Z,58.47
2022-11-11T19:59:43.870Z,57.73
2022-11-11T20:05:07.478Z,67.87
2022-11-11T20:10:29.183Z,58.50
2022-11-11T20:15:51.020Z,46.17
2022-11-11T20:21:13.597Z,57.37
2022-11-11T20:26:35.532Z,56.97
2022-11-11T20:31:56.823Z,55.13
2022-11-11T20:37:18.093Z,45.17
2022-11-11T20:42:39.388Z,40.07
2022-11-11T20:48:00.103Z,32.50
2022-11-11T20:53:21.476Z,38.60
2022-11-11T20:58:43.322Z,37.37
2022-11-11T21:04:05.782Z,33.43
2022-11-11T21:09:26.669Z,32.73
2022-11-11T21:14:47.506Z,32.63
2022-11-11T21:20:08.735Z,28.90
2022-11-11T21:25:32.368Z,30.93
2022-11-11T21:30:58.938Z,29.70
2022-11-11T21:36:21.465Z,26.20
2022-11-11T21:41:42.366Z,24.03
2022-11-11T21:47:03.447Z,29.80
2022-11-11T21:52:24.246Z,30.47
2022-11-11T21:57:45.011Z,31.07
2022-11-11T22:03:06.076Z,27.23
2022-11-11T22:08:27.662Z,26.00
2022-11-11T22:13:49.800Z,31.27
2022-11-11T22:19:14.681Z,29.90
2022-11-11T22:24:35.641Z,28.87
2022-11-11T22:29:56.628Z,26.60
2022-11-11T22:35:17.589Z,26.90
2022-11-11T22:40:38.757Z,41.27
2022-11-11T22:46:00.113Z,37.53
2022-11-11T22:51:22.799Z,22.93
2022-11-11T22:56:43.814Z,31.17
2022-11-11T23:02:05.139Z,19.37
2022-11-11T23:07:25.984Z,27.40
2022-11-11T23:12:46.740Z,40.63
2022-11-11T23:18:07.800Z,27.03
2022-11-11T23:23:29.152Z,23.03
2022-11-11T23:28:50.299Z,23.33
2022-11-11T23:34:11.393Z,25.00
2022-11-11T23:39:32.579Z,20.87
2022-11-11T23:44:53.547Z,18.23
2022-11-11T23:50:14.777Z,15.47
2022-11-11T23:55:36.032Z,18.80
